Time;durP1;ratioP1;P1;durP2;ratioP2;P2;SDS_P1;SDS_P2;PMS_P1;PMS_P2;Temp;Humidity;BMP_temperature;BMP_pressure;BME280_temperature;BME280_humidity;BME280_pressure;Samples;Min_cycle;Max_cycle;Signal;HPM_P1;HPM_P2
2023/12/30 00:01:36;;;;;;;59.63;34.33;;;;;;;5.35;85.63;99864.88;5034924;28;20256;-59
2023/12/30 00:04:03;;;;;;;61.33;35.03;;;;;;;5.38;85.78;99863.75;5034442;28;20665;-60
2023/12/30 00:06:30;;;;;;;59.97;33.40;;;;;;;5.40;85.28;99859.16;5034344;28;20551;-59
2023/12/30 00:08:58;;;;;;;58.03;33.37;;;;;;;5.38;85.16;99856.69;5034352;28;20209;-59
2023/12/30 00:11:25;;;;;;;57.43;32.97;;;;;;;5.34;84.35;99862.41;5034719;28;20198;-59
2023/12/30 00:13:52;;;;;;;53.73;32.10;;;;;;;5.31;84.45;99853.00;5034245;28;20243;-60
2023/12/30 00:16:18;;;;;;;50.80;31.93;;;;;;;5.27;85.48;99862.19;5034489;28;20224;-59
2023/12/30 00:18:45;;;;;;;50.30;31.67;;;;;;;5.28;85.70;99853.31;5034155;28;20202;-60
2023/12/30 00:21:12;;;;;;;55.10;31.97;;;;;;;5.20;84.98;99836.63;5034535;28;20203;-60
2023/12/30 00:23:42;;;;;;;53.53;31.00;;;;;;;5.27;85.11;99851.66;5034656;28;20194;-59
2023/12/30 00:26:19;;;;;;;50.90;30.60;;;;;;;5.25;85.23;99853.63;5034157;28;20194;-60
2023/12/30 00:28:46;;;;;;;49.87;31.03;;;;;;;5.23;85.10;99858.22;5034125;28;20258;-59
2023/12/30 00:31:21;;;;;;;57.20;31.50;;;;;;;5.20;85.74;99862.97;5034018;28;20194;-59
2023/12/30 00:33:47;;;;;;;60.07;32.93;;;;;;;5.16;86.03;99864.25;5034113;28;20189;-59
2023/12/30 00:36:14;;;;;;;57.67;30.73;;;;;;;5.18;85.75;99864.91;5034218;28;20222;-59
2023/12/30 00:38:41;;;;;;;55.10;30.90;;;;;;;5.18;85.24;99863.13;5033674;28;20190;-59
2023/12/30 00:41:07;;;;;;;48.73;28.10;;;;;;;5.16;85.28;99865.06;5033923;28;20267;-59
2023/12/30 00:43:36;;;;;;;47.93;27.90;;;;;;;5.16;85.75;99865.06;5033746;28;20574;-58
2023/12/30 00:46:02;;;;;;;46.87;27.93;;;;;;;5.18;85.53;99857.00;5033558;28;20199;-58
2023/12/30 00:48:30;;;;;;;45.33;27.40;;;;;;;5.15;85.94;99857.34;5033861;28;20189;-59
2023/12/30 00:50:57;;;;;;;43.40;24.73;;;;;;;5.10;85.82;99852.53;5033939;28;20200;-59
2023/12/30 00:53:23;;;;;;;39.33;24.07;;;;;;;5.09;85.88;99850.03;5033729;28;20201;-59
2023/12/30 00:55:50;;;;;;;45.90;24.93;;;;;;;5.01;86.18;99853.44;5033809;28;20227;-58
2023/12/30 00:58:17;;;;;;;46.53;26.27;;;;;;;5.02;85.99;99851.63;5033791;28;20260;-59
2023/12/30 01:00:45;;;;;;;40.23;23.37;;;;;;;5.01;86.42;99856.06;5033502;28;20260;-60
2023/12/30 01:03:12;;;;;;;39.43;25.27;;;;;;;5.01;86.60;99860.50;5032711;28;20253;-60
2023/12/30 01:05:38;;;;;;;40.83;23.10;;;;;;;5.00;86.75;99853.59;5033746;28;20193;-59
2023/12/30 01:08:05;;;;;;;38.53;23.63;;;;;;;4.98;86.74;99859.00;5033622;28;20197;-60
2023/12/30 01:10:32;;;;;;;39.23;22.60;;;;;;;4.94;86.75;99859.44;5033356;28;20621;-59
2023/12/30 01:12:59;;;;;;;43.83;24.50;;;;;;;4.85;87.49;99866.47;5033447;28;20646;-59
2023/12/30 01:15:26;;;;;;;46.23;28.53;;;;;;;4.63;86.60;99859.03;5033434;28;20228;-59
2023/12/30 01:17:54;;;;;;;48.93;30.00;;;;;;;4.64;87.54;99852.78;5033100;28;20677;-59
2023/12/30 01:20:20;;;;;;;45.30;27.67;;;;;;;4.68;87.53;99856.75;5033084;28;20627;-59
2023/12/30 01:22:46;;;;;;;37.30;25.00;;;;;;;4.54;87.03;99857.25;5033293;28;20249;-60
2023/12/30 01:25:13;;;;;;;44.90;25.73;;;;;;;4.38;87.31;99857.09;5033266;28;20206;-60
2023/12/30 01:27:40;;;;;;;42.43;25.23;;;;;;;4.34;87.60;99850.47;5033234;28;20201;-59
2023/12/30 01:30:07;;;;;;;48.73;30.07;;;;;;;4.35;87.64;99859.19;5033327;28;20287;-59
2023/12/30 01:32:34;;;;;;;71.43;43.80;;;;;;;4.34;87.34;99853.09;5032946;28;20252;-58
2023/12/30 01:35:03;;;;;;;69.50;38.67;;;;;;;4.27;87.99;99843.31;5032918;28;20250;-58
2023/12/30 01:37:30;;;;;;;54.60;32.87;;;;;;;4.29;88.80;99844.84;5023295;28;20222;-58
2023/12/30 01:39:57;;;;;;;50.20;29.73;;;;;;;4.30;89.27;99849.09;5013267;28;20197;-58
2023/12/30 01:42:23;;;;;;;53.83;33.43;;;;;;;4.29;89.35;99850.09;5013231;28;20244;-59
2023/12/30 01:44:50;;;;;;;48.33;30.97;;;;;;;4.28;88.56;99851.06;5012724;28;20256;-59
2023/12/30 01:47:18;;;;;;;43.63;29.13;;;;;;;4.32;88.10;99849.81;5019846;28;20201;-59
2023/12/30 01:49:46;;;;;;;50.23;30.27;;;;;;;4.30;86.51;99846.47;5032544;28;20201;-60
2023/12/30 01:52:14;;;;;;;40.17;26.90;;;;;;;4.18;87.83;99839.81;5032851;28;20664;-59
2023/12/30 01:54:42;;;;;;;46.37;27.40;;;;;;;4.03;88.71;99830.75;5032407;28;20675;-59
2023/12/30 01:57:10;;;;;;;40.50;26.70;;;;;;;3.94;89.02;99830.78;5032678;28;20189;-60
2023/12/30 01:59:37;;;;;;;39.53;29.10;;;;;;;3.98;89.36;99827.72;5032312;28;20663;-59
2023/12/30 02:02:04;;;;;;;50.60;28.50;;;;;;;4.05;89.59;99828.78;5032394;28;20668;-59
2023/12/30 02:04:30;;;;;;;50.77;29.43;;;;;;;4.07;89.06;99824.22;5032195;28;20243;-59
2023/12/30 02:06:57;;;;;;;46.53;29.67;;;;;;;3.96;88.39;99819.16;5032339;28;20197;-60
2023/12/30 02:09:25;;;;;;;43.07;26.10;;;;;;;3.77;88.59;99823.69;5032118;28;20656;-59
2023/12/30 02:11:52;;;;;;;41.47;26.07;;;;;;;3.83;89.23;99823.94;5032539;28;20193;-59
2023/12/30 02:14:29;;;;;;;39.27;25.23;;;;;;;3.76;89.38;99812.34;5031704;28;20201;-59
2023/12/30 02:16:57;;;;;;;43.23;25.57;;;;;;;3.82;89.80;99817.03;5032216;28;20274;-59
2023/12/30 02:19:24;;;;;;;44.17;24.97;;;;;;;3.83;90.46;99818.66;5032321;28;20197;-59
2023/12/30 02:21:51;;;;;;;43.87;24.93;;;;;;;3.88;89.82;99821.69;5032264;28;20617;-59
2023/12/30 02:24:20;;;;;;;43.97;27.03;;;;;;;3.90;89.58;99827.63;5031910;28;20592;-58
2023/12/30 02:26:46;;;;;;;41.90;27.43;;;;;;;3.88;89.12;99816.44;5031895;28;20247;-59
2023/12/30 02:29:13;;;;;;;37.17;25.87;;;;;;;3.97;88.45;99825.25;5032296;28;20276;-59
2023/12/30 02:31:45;;;;;;;46.13;28.43;;;;;;;3.96;88.06;99828.84;5032340;28;20197;-58
2023/12/30 02:34:12;;;;;;;38.30;25.20;;;;;;;3.98;89.04;99833.00;5032107;28;20197;-59
2023/12/30 02:36:39;;;;;;;48.20;27.33;;;;;;;4.00;88.70;99835.47;5031788;28;20225;-59
2023/12/30 02:39:06;;;;;;;51.80;28.10;;;;;;;3.94;89.26;99839.50;5031576;28;20194;-58
2023/12/30 02:41:34;;;;;;;49.50;28.57;;;;;;;3.84;88.94;99835.28;5031708;28;20189;-59
2023/12/30 02:44:03;;;;;;;49.97;28.53;;;;;;;3.69;88.27;99842.81;5031720;28;20715;-59
2023/12/30 02:46:29;;;;;;;41.87;25.70;;;;;;;3.68;89.36;99840.31;5031886;28;20235;-60
2023/12/30 02:48:57;;;;;;;38.13;25.40;;;;;;;3.63;88.99;99845.97;5031444;28;20228;-59
2023/12/30 02:51:25;;;;;;;44.83;26.03;;;;;;;3.53;89.66;99842.56;5031259;28;20197;-59
2023/12/30 02:53:51;;;;;;;46.13;27.27;;;;;;;3.55;90.50;99842.44;5030561;28;20593;-62
2023/12/30 02:56:19;;;;;;;44.57;27.67;;;;;;;3.60;90.87;99835.75;5030820;28;20224;-59
2023/12/30 02:58:49;;;;;;;38.80;26.13;;;;;;;3.67;91.32;99836.84;5030446;28;20742;-59
2023/12/30 03:01:16;;;;;;;48.80;28.60;;;;;;;3.72;90.85;99842.50;5030563;28;20565;-60
2023/12/30 03:03:43;;;;;;;43.73;27.70;;;;;;;3.74;90.16;99845.81;5030799;28;20228;-60
2023/12/30 03:06:10;;;;;;;46.83;27.87;;;;;;;3.76;89.39;99846.47;5030314;28;20727;-60
2023/12/30 03:08:36;;;;;;;45.73;27.33;;;;;;;3.78;89.10;99854.22;5031404;28;20198;-58
2023/12/30 03:11:04;;;;;;;45.40;27.77;;;;;;;3.80;88.78;99850.47;5031425;28;20687;-60
2023/12/30 03:13:31;;;;;;;44.93;27.73;;;;;;;3.78;89.15;99848.97;5031722;28;20193;-59
2023/12/30 03:15:59;;;;;;;51.13;27.83;;;;;;;3.81;90.12;99846.91;5031196;28;20746;-59
2023/12/30 03:18:25;;;;;;;48.43;28.47;;;;;;;3.65;88.47;99846.69;5031677;28;20197;-60
2023/12/30 03:20:52;;;;;;;46.63;29.00;;;;;;;3.63;89.17;99845.19;5031244;28;20193;-60
2023/12/30 03:23:19;;;;;;;45.10;27.13;;;;;;;3.63;90.10;99840.72;5031511;28;20197;-60
2023/12/30 03:25:45;;;;;;;41.60;25.20;;;;;;;3.70;89.53;99847.06;5031521;28;20197;-60
2023/12/30 03:28:12;;;;;;;40.13;26.37;;;;;;;3.74;88.75;99851.06;5035147;28;20704;-60
2023/12/30 03:30:39;;;;;;;44.23;27.10;;;;;;;3.73;88.73;99848.59;5035461;28;20194;-60
2023/12/30 03:33:07;;;;;;;46.33;27.23;;;;;;;3.73;89.38;99849.41;5035488;28;20197;-60
2023/12/30 03:35:34;;;;;;;45.77;28.00;;;;;;;3.63;88.81;99853.06;5035115;28;20225;-60
2023/12/30 03:38:00;;;;;;;46.10;28.70;;;;;;;3.54;90.08;99848.63;5035127;28;20197;-60
2023/12/30 03:40:27;;;;;;;50.03;27.50;;;;;;;3.49;89.99;99851.72;5034947;28;20754;-60
2023/12/30 03:42:54;;;;;;;44.90;27.00;;;;;;;3.50;90.69;99848.09;5034952;28;20483;-59
2023/12/30 03:45:20;;;;;;;44.97;27.60;;;;;;;3.56;89.95;99858.03;5035173;28;20275;-59
2023/12/30 03:47:48;;;;;;;40.50;25.97;;;;;;;3.60;88.98;99863.84;5035317;28;20197;-59
2023/12/30 03:50:16;;;;;;;47.63;29.03;;;;;;;3.63;88.78;99859.13;5035084;28;20231;-60
2023/12/30 03:52:43;;;;;;;46.27;28.47;;;;;;;3.67;87.99;99849.97;5034765;28;20735;-60
2023/12/30 03:55:10;;;;;;;47.93;28.63;;;;;;;3.69;87.81;99848.06;5034631;28;20190;-60
2023/12/30 03:57:36;;;;;;;48.53;27.40;;;;;;;3.72;88.25;99865.31;5035143;28;20201;-60
2023/12/30 04:00:04;;;;;;;50.17;27.60;;;;;;;3.74;88.35;99866.84;5034932;28;20271;-59
2023/12/30 04:02:31;;;;;;;44.73;27.17;;;;;;;3.73;87.77;99861.72;5034638;28;20193;-60
2023/12/30 04:04:58;;;;;;;43.73;27.17;;;;;;;3.70;88.03;99867.25;5034410;28;20205;-59
2023/12/30 04:07:26;;;;;;;44.07;26.00;;;;;;;3.59;88.60;99864.81;5034616;28;20193;-59
2023/12/30 04:09:52;;;;;;;37.67;25.50;;;;;;;3.52;88.83;99861.91;5034388;28;20262;-60
2023/12/30 04:12:20;;;;;;;36.00;25.53;;;;;;;3.52;89.67;99861.91;5034499;28;20650;-60
2023/12/30 04:14:47;;;;;;;43.23;25.33;;;;;;;3.54;89.31;99870.47;5034200;28;20199;-59
2023/12/30 04:17:14;;;;;;;40.53;26.43;;;;;;;3.43;88.87;99860.13;5034053;28;20228;-59
2023/12/30 04:19:40;;;;;;;41.97;25.80;;;;;;;3.35;88.65;99865.25;5034463;28;20200;-59
2023/12/30 04:22:07;;;;;;;40.90;25.07;;;;;;;3.40;89.96;99863.06;5034560;28;20300;-59
2023/12/30 04:24:35;;;;;;;45.80;25.90;;;;;;;3.44;89.21;99861.78;5034204;28;20557;-60
2023/12/30 04:27:02;;;;;;;43.30;26.63;;;;;;;3.38;88.89;99849.25;5034131;28;20201;-59
2023/12/30 04:29:29;;;;;;;36.37;25.83;;;;;;;3.53;88.80;99860.97;5034477;28;20860;-59
2023/12/30 04:31:56;;;;;;;39.77;26.53;;;;;;;3.56;89.39;99858.03;5034306;28;20224;-60
2023/12/30 04:34:24;;;;;;;43.27;27.40;;;;;;;3.59;88.86;99862.19;5033918;28;20197;-59
2023/12/30 04:36:50;;;;;;;40.53;26.67;;;;;;;3.58;87.59;99866.59;5029592;28;20639;-59
2023/12/30 04:39:17;;;;;;;44.00;25.03;;;;;;;3.57;88.05;99857.06;5013233;28;20198;-59
2023/12/30 04:41:45;;;;;;;40.87;25.37;;;;;;;3.52;88.79;99869.78;5019185;28;20190;-59
2023/12/30 04:44:12;;;;;;;32.23;23.50;;;;;;;3.54;89.80;99859.97;5023555;28;20193;-60
2023/12/30 04:46:39;;;;;;;33.80;24.37;;;;;;;3.60;88.77;99867.28;5024425;28;20199;-59
2023/12/30 04:49:05;;;;;;;36.20;24.10;;;;;;;3.58;88.29;99866.59;5022387;28;20190;-59
2023/12/30 04:51:32;;;;;;;37.40;23.47;;;;;;;3.43;88.53;99865.38;5023270;28;20575;-60
2023/12/30 04:53:59;;;;;;;38.80;24.40;;;;;;;3.48;89.31;99864.97;5027213;28;20251;-58
2023/12/30 04:56:25;;;;;;;35.97;22.17;;;;;;;3.50;88.78;99868.28;5033274;28;20221;-59
2023/12/30 04:58:54;;;;;;;32.73;22.63;;;;;;;3.42;88.38;99866.38;5033566;28;20735;-60
2023/12/30 05:01:20;;;;;;;41.73;23.33;;;;;;;3.35;88.90;99862.63;5033623;28;20432;-59
2023/12/30 05:03:47;;;;;;;35.03;23.07;;;;;;;3.33;89.66;99861.97;5033410;28;20890;-59
2023/12/30 05:06:21;;;;;;;34.43;23.03;;;;;;;3.37;89.30;99865.97;5033488;28;20201;-60
2023/12/30 05:08:47;;;;;;;31.70;22.67;;;;;;;3.44;90.09;99864.41;5033607;28;20307;-60
2023/12/30 05:11:14;;;;;;;33.63;23.23;;;;;;;3.49;89.86;99862.22;5033536;28;20447;-60
2023/12/30 05:13:41;;;;;;;34.50;22.40;;;;;;;3.54;89.52;99867.84;5033535;28;20193;-60
2023/12/30 05:16:09;;;;;;;36.67;24.27;;;;;;;3.57;89.03;99870.22;5033474;28;20286;-59
2023/12/30 05:18:36;;;;;;;36.80;21.97;;;;;;;3.58;88.96;99868.38;5033747;28;20201;-60
2023/12/30 05:21:03;;;;;;;33.43;22.03;;;;;;;3.61;88.22;99871.56;5033318;28;20251;-59
2023/12/30 05:23:29;;;;;;;39.77;23.10;;;;;;;3.59;87.69;99877.94;5033419;28;20225;-59
2023/12/30 05:25:56;;;;;;;34.27;21.97;;;;;;;3.58;88.71;99873.63;5033257;28;20193;-59
2023/12/30 05:28:23;;;;;;;31.90;21.33;;;;;;;3.51;89.02;99880.44;5033253;28;20225;-59
2023/12/30 05:30:50;;;;;;;39.27;21.70;;;;;;;3.31;88.97;99879.66;5032850;28;20251;-60
2023/12/30 05:33:18;;;;;;;38.67;21.40;;;;;;;3.27;90.18;99887.97;5026876;28;20189;-59
2023/12/30 05:35:44;;;;;;;49.60;22.60;;;;;;;3.25;91.54;99890.72;5021607;28;20208;-61
2023/12/30 05:38:12;;;;;;;34.60;23.57;;;;;;;3.30;91.36;99893.75;5022188;28;20196;-59
2023/12/30 05:40:39;;;;;;;35.60;23.60;;;;;;;3.36;90.39;99893.19;5022800;28;20435;-59
2023/12/30 05:43:06;;;;;;;38.47;23.73;;;;;;;3.36;90.13;99892.34;5023500;28;20291;-59
2023/12/30 05:45:33;;;;;;;37.53;23.27;;;;;;;3.35;90.33;99896.78;5023700;28;20193;-60
2023/12/30 05:48:01;;;;;;;37.50;23.97;;;;;;;3.34;89.83;99889.88;5022313;28;20568;-59
2023/12/30 05:50:29;;;;;;;39.53;23.27;;;;;;;3.41;89.65;99896.22;5021150;28;20202;-60
2023/12/30 05:52:56;;;;;;;35.77;25.17;;;;;;;3.47;89.23;99900.91;5022505;28;20698;-59
2023/12/30 05:55:22;;;;;;;43.53;24.57;;;;;;;3.47;89.29;99900.91;5022991;28;20441;-59
2023/12/30 05:57:49;;;;;;;48.60;29.03;;;;;;;3.54;89.61;99901.16;5020908;28;20280;-60
2023/12/30 06:00:19;;;;;;;44.77;29.03;;;;;;;3.59;89.15;99902.38;5022661;28;20444;-60
2023/12/30 06:02:46;;;;;;;49.30;30.93;;;;;;;3.62;87.83;99896.88;5022801;28;20543;-61
2023/12/30 06:05:12;;;;;;;53.13;28.87;;;;;;;3.55;88.67;99901.00;5023379;28;20189;-61
2023/12/30 06:07:40;;;;;;;50.27;30.63;;;;;;;3.53;88.69;99900.34;5021985;28;20639;-60
2023/12/30 06:10:08;;;;;;;58.10;33.50;;;;;;;3.56;89.62;99897.41;5021156;28;20252;-60
2023/12/30 06:12:35;;;;;;;78.70;42.57;;;;;;;3.70;90.11;99910.13;5022467;28;20189;-61
2023/12/30 06:15:01;;;;;;;125.80;61.97;;;;;;;3.81;89.69;99906.50;5022138;28;20225;-60
2023/12/30 06:17:28;;;;;;;103.93;52.50;;;;;;;3.84;88.87;99912.28;5025751;28;20743;-60
2023/12/30 06:19:55;;;;;;;64.37;37.03;;;;;;;3.92;88.80;99922.91;5031988;28;20252;-60
2023/12/30 06:22:21;;;;;;;48.30;31.63;;;;;;;4.06;89.05;99930.34;5032155;28;20197;-64
2023/12/30 06:24:49;;;;;;;63.03;35.43;;;;;;;4.19;88.51;99920.31;5031734;28;20271;-72
2023/12/30 06:27:16;;;;;;;56.67;34.07;;;;;;;4.30;88.30;99921.91;5031197;28;20255;-70
2023/12/30 06:29:43;;;;;;;60.50;35.37;;;;;;;4.36;86.72;99929.22;5032272;28;20775;-73
2023/12/30 06:32:09;;;;;;;59.23;36.67;;;;;;;4.40;87.81;99917.44;5031273;28;20197;-73
2023/12/30 06:34:36;;;;;;;59.20;34.60;;;;;;;4.49;86.86;99920.00;5031423;28;20251;-75
2023/12/30 06:37:03;;;;;;;71.50;38.50;;;;;;;4.68;87.59;99917.28;5025215;28;20637;-73
2023/12/30 06:39:30;;;;;;;66.17;37.37;;;;;;;4.90;86.33;99922.09;5011698;28;20201;-73
2023/12/30 06:41:59;;;;;;;61.30;36.37;;;;;;;4.94;85.32;99925.25;5011882;28;20197;-74
2023/12/30 06:44:26;;;;;;;148.93;65.33;;;;;;;5.11;85.10;99934.97;5011907;28;20581;-71
2023/12/30 06:46:53;;;;;;;327.63;125.03;;;;;;;5.27;83.46;99930.66;5011907;28;20235;-74
2023/12/30 06:49:20;;;;;;;199.80;80.37;;;;;;;5.49;86.51;99935.47;5012123;28;20197;-69
2023/12/30 06:51:46;;;;;;;159.20;66.60;;;;;;;5.91;85.02;99938.25;5012082;28;20223;-69
2023/12/30 06:54:13;;;;;;;135.57;57.27;;;;;;;6.23;82.50;99946.34;5011936;28;20613;-69
2023/12/30 06:56:40;;;;;;;83.63;41.03;;;;;;;6.44;81.00;99946.75;5011895;28;20221;-73
2023/12/30 06:59:08;;;;;;;61.70;35.93;;;;;;;6.66;79.92;99948.81;5011625;28;20663;-67
2023/12/30 07:01:39;;;;;;;61.13;35.03;;;;;;;6.86;79.31;99946.75;5011255;28;20258;-66
2023/12/30 07:04:05;;;;;;;62.33;35.57;;;;;;;7.07;77.90;99957.69;5023254;28;20197;-58
2023/12/30 07:06:32;;;;;;;76.80;43.33;;;;;;;7.25;77.09;99958.38;5019685;28;20190;-60
2023/12/30 07:08:59;;;;;;;69.30;41.57;;;;;;;7.44;77.11;99960.69;5028289;28;20563;-59
2023/12/30 07:11:25;;;;;;;99.67;58.50;;;;;;;7.60;77.30;99956.22;5031435;28;20189;-61
2023/12/30 07:13:52;;;;;;;116.90;63.77;;;;;;;7.77;76.53;99952.59;5030981;28;20193;-63
2023/12/30 07:16:21;;;;;;;125.50;68.40;;;;;;;7.93;75.33;99952.56;5031049;28;20193;-63
2023/12/30 07:18:48;;;;;;;115.17;63.80;;;;;;;8.17;74.84;99957.81;5031210;28;20197;-63
2023/12/30 07:21:14;;;;;;;99.83;56.60;;;;;;;8.32;74.70;99956.16;5031068;28;20216;-64
2023/12/30 07:23:41;;;;;;;76.80;45.23;;;;;;;8.55;73.90;99954.41;5030973;28;20193;-63
2023/12/30 07:26:08;;;;;;;71.03;41.40;;;;;;;8.87;73.79;99953.44;5031493;28;20193;-63
2023/12/30 07:28:34;;;;;;;70.73;42.87;;;;;;;9.18;72.76;99956.88;5030976;28;20233;-63
2023/12/30 07:31:01;;;;;;;66.20;41.33;;;;;;;9.44;71.36;99970.63;5031546;28;20193;-63
2023/12/30 07:33:29;;;;;;;65.73;38.57;;;;;;;9.67;70.62;99974.91;5030670;28;20189;-62
2023/12/30 07:35:57;;;;;;;47.90;32.97;;;;;;;9.85;70.75;99969.28;5024583;28;20225;-65
2023/12/30 07:38:24;;;;;;;48.23;32.13;;;;;;;10.11;68.75;99977.69;5026314;28;20664;-63
2023/12/30 07:40:50;;;;;;;41.33;27.83;;;;;;;10.29;68.18;99983.47;5029819;28;20646;-62
2023/12/30 07:43:17;;;;;;;39.83;25.60;;;;;;;10.44;66.38;99987.78;5017198;28;20244;-62
2023/12/30 07:45:44;;;;;;;31.23;20.60;;;;;;;10.56;66.89;99982.84;5025092;28;20190;-62
2023/12/30 07:48:11;;;;;;;24.20;16.63;;;;;;;10.62;65.57;99990.09;5027219;28;20609;-62
2023/12/30 07:50:39;;;;;;;28.93;16.67;;;;;;;10.71;64.89;99992.44;5031039;28;20271;-66
2023/12/30 07:53:05;;;;;;;26.13;18.50;;;;;;;10.77;63.02;99990.88;5030714;28;20199;-64
2023/12/30 07:55:32;;;;;;;25.00;17.83;;;;;;;10.87;64.43;99986.13;5030208;28;20732;-63
2023/12/30 07:57:59;;;;;;;34.70;18.13;;;;;;;11.04;63.67;99998.19;5029786;28;20688;-62
2023/12/30 08:00:25;;;;;;;21.40;15.30;;;;;;;11.23;63.00;100008.19;5031171;28;20200;-63
2023/12/30 08:02:52;;;;;;;19.43;15.83;;;;;;;11.47;62.10;100005.19;5030896;28;20657;-61
2023/12/30 08:05:19;;;;;;;22.20;16.93;;;;;;;11.74;61.86;100007.13;5030935;28;20196;-62
2023/12/30 08:07:47;;;;;;;16.20;13.47;;;;;;;12.02;58.94;100015.16;5031274;28;20206;-61
2023/12/30 08:10:14;;;;;;;21.97;15.33;;;;;;;12.24;58.83;100014.94;5030914;28;20266;-61
2023/12/30 08:12:40;;;;;;;16.07;12.90;;;;;;;12.45;56.42;100006.06;5030945;28;20196;-60
2023/12/30 08:15:10;;;;;;;16.73;11.93;;;;;;;12.56;56.60;100009.00;5034530;28;20200;-60
2023/12/30 08:17:37;;;;;;;13.93;11.63;;;;;;;12.73;56.13;100010.31;5030906;28;20220;-62
2023/12/30 08:20:05;;;;;;;14.20;11.83;;;;;;;12.90;55.12;100013.50;5020638;28;20205;-60
2023/12/30 08:22:32;;;;;;;17.30;12.27;;;;;;;13.12;53.98;100015.88;5014637;28;20263;-60
2023/12/30 08:25:00;;;;;;;18.37;11.57;;;;;;;13.20;54.11;100007.72;5031839;28;20241;-60
2023/12/30 08:27:27;;;;;;;14.77;11.57;;;;;;;13.33;55.19;100012.25;5033776;28;20617;-59
2023/12/30 08:29:53;;;;;;;15.03;11.53;;;;;;;13.36;53.08;100023.31;5033276;28;20302;-60
2023/12/30 08:32:20;;;;;;;11.23;10.20;;;;;;;13.18;52.61;100015.06;5028638;28;20189;-61
2023/12/30 08:34:47;;;;;;;12.10;10.20;;;;;;;13.06;54.02;99998.00;5031760;28;20255;-63
2023/12/30 08:37:14;;;;;;;20.10;11.20;;;;;;;13.17;52.66;100007.25;5021228;28;20275;-61
2023/12/30 08:39:41;;;;;;;15.47;11.17;;;;;;;12.99;53.71;100001.66;5024169;28;20260;-62
2023/12/30 08:42:09;;;;;;;16.90;10.73;;;;;;;13.09;54.21;100000.28;5021976;28;20666;-61
2023/12/30 08:44:40;;;;;;;15.03;11.00;;;;;;;13.31;53.06;99999.09;5021649;28;20197;-61
2023/12/30 08:47:07;;;;;;;15.70;10.93;;;;;;;13.50;53.18;100006.34;5024078;28;20609;-62
2023/12/30 08:49:34;;;;;;;31.40;11.60;;;;;;;13.70;52.18;99999.19;5023042;28;20260;-61
2023/12/30 08:52:00;;;;;;;13.67;10.63;;;;;;;13.84;51.11;100003.50;5021216;28;20197;-61
2023/12/30 08:54:27;;;;;;;22.73;11.73;;;;;;;14.00;50.57;99994.25;5033125;28;20220;-60
2023/12/30 08:56:54;;;;;;;13.60;10.53;;;;;;;14.16;50.29;99978.66;5033634;28;20197;-60
2023/12/30 08:59:24;;;;;;;14.73;10.73;;;;;;;14.40;49.76;99991.41;5024192;28;20270;-60
2023/12/30 09:01:50;;;;;;;40.97;12.10;;;;;;;14.56;49.05;99985.59;5031407;28;20193;-61
2023/12/30 09:04:17;;;;;;;12.37;10.87;;;;;;;14.51;48.26;99988.09;5033212;28;20204;-60
2023/12/30 09:06:44;;;;;;;12.93;10.40;;;;;;;14.25;48.70;99972.09;5033405;28;20197;-60
2023/12/30 09:09:11;;;;;;;16.03;10.77;;;;;;;14.19;48.49;99972.91;5033079;28;20201;-60
2023/12/30 09:11:38;;;;;;;14.37;11.40;;;;;;;14.17;48.74;99966.91;5029042;28;20224;-61
2023/12/30 09:14:06;;;;;;;19.63;12.10;;;;;;;14.21;48.28;99967.38;5022123;28;20636;-61
2023/12/30 09:16:34;;;;;;;27.93;14.20;;;;;;;14.35;48.78;99969.00;5023292;28;20193;-60
2023/12/30 09:19:01;;;;;;;17.73;12.73;;;;;;;14.45;48.30;99967.53;5013076;28;20257;-60
2023/12/30 09:21:29;;;;;;;27.13;12.73;;;;;;;14.60;48.13;99965.44;5013516;28;20202;-60
2023/12/30 09:23:56;;;;;;;24.17;12.40;;;;;;;14.72;47.28;99950.38;5019962;28;20277;-62
2023/12/30 09:26:23;;;;;;;25.17;12.57;;;;;;;14.70;46.71;99947.09;5021555;28;20202;-62
2023/12/30 09:28:49;;;;;;;24.40;12.87;;;;;;;14.50;47.21;99953.53;5023341;28;20224;-59
2023/12/30 09:31:17;;;;;;;18.30;10.97;;;;;;;14.39;48.03;99952.34;5022749;28;20553;-61
2023/12/30 09:33:45;;;;;;;14.00;10.67;;;;;;;14.29;48.65;99949.25;5021289;28;20194;-62
2023/12/30 09:36:11;;;;;;;13.10;11.63;;;;;;;14.21;49.18;99944.13;5030016;28;20248;-61
2023/12/30 09:38:38;;;;;;;18.10;13.10;;;;;;;14.34;48.67;99946.78;5013929;28;20217;-60
2023/12/30 09:41:06;;;;;;;17.80;12.57;;;;;;;14.57;48.08;99943.63;5012954;28;20201;-60
2023/12/30 09:43:34;;;;;;;21.83;15.70;;;;;;;14.63;47.99;99935.59;5012732;28;20233;-60
2023/12/30 09:46:02;;;;;;;28.97;15.97;;;;;;;14.61;47.16;99940.34;5017727;28;20194;-60
2023/12/30 09:48:28;;;;;;;26.70;15.17;;;;;;;14.57;48.17;99933.78;5022501;28;20728;-60
2023/12/30 09:50:57;;;;;;;27.00;14.77;;;;;;;14.60;48.00;99927.19;5021272;28;20239;-60
2023/12/30 09:53:26;;;;;;;20.23;11.93;;;;;;;14.61;47.99;99928.81;5014674;28;20198;-60
2023/12/30 09:55:54;;;;;;;12.83;11.17;;;;;;;14.59;47.74;99926.34;5012432;28;20620;-60
2023/12/30 09:58:22;;;;;;;19.93;13.17;;;;;;;14.67;47.82;99925.31;5012775;28;20221;-61
2023/12/30 10:00:48;;;;;;;24.50;12.37;;;;;;;14.82;47.57;99923.16;5012420;28;20197;-60
2023/12/30 10:03:16;;;;;;;34.60;12.40;;;;;;;14.84;47.81;99921.94;5014838;28;20190;-60
2023/12/30 10:05:42;;;;;;;17.67;11.00;;;;;;;14.34;49.17;99917.38;5031489;28;20200;-60
2023/12/30 10:08:11;;;;;;;21.77;10.90;;;;;;;14.36;49.57;99910.00;5032123;28;20208;-62
2023/12/30 10:10:45;;;;;;;18.07;10.97;;;;;;;14.35;49.93;99913.69;5032413;28;20197;-61
2023/12/30 10:13:13;;;;;;;13.73;11.33;;;;;;;14.39;50.81;99914.09;5031306;28;20197;-62
2023/12/30 10:15:40;;;;;;;14.63;10.87;;;;;;;14.49;50.33;99909.94;5032229;28;20247;-61
2023/12/30 10:18:07;;;;;;;19.63;10.50;;;;;;;14.67;49.71;99896.69;5032136;28;20233;-59
2023/12/30 10:20:34;;;;;;;17.93;10.73;;;;;;;14.86;48.86;99894.97;5031931;28;20696;-61
2023/12/30 10:23:01;;;;;;;19.60;10.20;;;;;;;15.11;48.39;99894.00;5032276;28;20197;-61
2023/12/30 10:25:30;;;;;;;12.40;10.67;;;;;;;15.32;47.69;99882.94;5032316;28;20193;-60
2023/12/30 10:27:57;;;;;;;21.73;11.57;;;;;;;15.36;48.51;99878.03;5031836;28;20211;-60
2023/12/30 10:30:23;;;;;;;29.73;11.17;;;;;;;15.30;48.23;99866.31;5031447;28;20243;-59
2023/12/30 10:32:50;;;;;;;24.70;11.33;;;;;;;15.42;48.28;99869.13;5032140;28;20198;-60
2023/12/30 10:35:17;;;;;;;17.03;10.27;;;;;;;15.59;48.02;99867.53;5031576;28;20193;-59
2023/12/30 10:37:44;;;;;;;20.17;12.60;;;;;;;15.53;48.39;99855.03;5031574;28;20266;-59
2023/12/30 10:40:11;;;;;;;15.37;10.57;;;;;;;15.31;49.31;99851.88;5027312;28;20185;-60
2023/12/30 10:42:41;;;;;;;15.10;10.33;;;;;;;15.29;49.72;99853.97;5027094;28;20257;-60
2023/12/30 10:45:09;;;;;;;18.77;10.70;;;;;;;15.32;48.94;99832.09;5027849;28;20611;-60
2023/12/30 10:47:40;;;;;;;18.43;10.67;;;;;;;15.46;48.75;99844.38;5031321;28;20660;-60
2023/12/30 10:50:09;;;;;;;15.50;9.70;;;;;;;15.53;50.64;99845.13;5027484;28;20224;-60
2023/12/30 10:52:40;;;;;;;22.17;9.93;;;;;;;15.49;49.36;99837.78;5017330;28;20658;-60
2023/12/30 10:55:11;;;;;;;13.63;9.50;;;;;;;15.44;48.99;99817.00;5028519;28;20190;-60
2023/12/30 10:57:45;;;;;;;18.17;9.93;;;;;;;15.72;48.79;99829.91;5028540;28;20186;-60
2023/12/30 11:00:18;;;;;;;11.23;9.03;;;;;;;15.74;48.78;99826.00;5017341;28;20193;-61
2023/12/30 11:02:46;;;;;;;10.37;9.27;;;;;;;15.76;47.88;99821.22;5023811;28;20270;-60
2023/12/30 11:05:23;;;;;;;8.93;8.13;;;;;;;15.77;47.71;99820.19;5016546;28;20194;-60
2023/12/30 11:07:50;;;;;;;9.63;8.70;;;;;;;15.90;47.73;99813.88;5011911;28;20248;-59
2023/12/30 11:10:18;;;;;;;10.83;9.27;;;;;;;16.01;48.18;99812.31;5016101;28;20722;-59
2023/12/30 11:12:46;;;;;;;13.27;8.97;;;;;;;16.07;47.91;99808.75;5031688;28;20204;-61
2023/12/30 11:15:28;;;;;;;29.53;9.30;;;;;;;16.15;46.45;99811.94;5031042;28;20193;-61
2023/12/30 11:17:56;;;;;;;9.83;8.40;;;;;;;16.20;46.52;99803.25;5031613;28;20209;-61
2023/12/30 11:20:25;;;;;;;11.17;9.27;;;;;;;16.25;46.38;99800.72;5031072;28;20255;-60
2023/12/30 11:22:54;;;;;;;14.40;8.97;;;;;;;16.30;46.01;99795.47;5031541;28;20231;-60